Time;durP1;ratioP1;P1;durP2;ratioP2;P2;SDS_P1;SDS_P2;PMS_P1;PMS_P2;Temp;Humidity;BMP_temperature;BMP_pressure;BME280_temperature;BME280_humidity;BME280_pressure;Samples;Min_cycle;Max_cycle;Signal;HPM_P1;HPM_P2
2021/09/05 00:04:38;;;;;;;6.67;4.90;;;18.70;70.30;;;;;;10458046;28;20193;-67
2021/09/05 00:10:00;;;;;;;6.27;4.23;;;18.70;70.50;;;;;;10455623;28;20224;-67
2021/09/05 00:15:22;;;;;;;7.57;4.40;;;18.70;70.60;;;;;;10457581;28;20584;-67
2021/09/05 00:20:46;;;;;;;5.97;4.27;;;18.60;71.20;;;;;;10456233;28;20245;-67
2021/09/05 00:26:08;;;;;;;6.70;4.23;;;18.70;70.90;;;;;;10460109;28;20597;-68
2021/09/05 00:31:30;;;;;;;6.80;4.60;;;18.70;70.90;;;;;;10416281;28;20214;-67
2021/09/05 00:36:54;;;;;;;6.97;4.60;;;18.70;71.00;;;;;;10453811;28;20224;-68
2021/09/05 00:42:22;;;;;;;6.73;4.70;;;18.60;71.10;;;;;;10456180;28;20217;-67
2021/09/05 00:47:44;;;;;;;4.50;4.03;;;18.70;71.10;;;;;;10457665;28;20276;-67
2021/09/05 00:53:08;;;;;;;7.27;4.63;;;18.60;71.20;;;;;;10455786;28;20228;-67
2021/09/05 00:58:30;;;;;;;7.23;4.60;;;18.60;71.30;;;;;;10455373;28;20596;-68
2021/09/05 01:03:52;;;;;;;5.40;4.63;;;18.60;71.40;;;;;;10454903;28;20223;-67
2021/09/05 01:09:16;;;;;;;5.83;4.57;;;18.60;71.40;;;;;;10454545;28;20261;-67
2021/09/05 01:14:38;;;;;;;8.10;5.50;;;18.60;71.40;;;;;;10455826;28;20284;-67
2021/09/05 01:20:00;;;;;;;7.17;5.00;;;18.60;71.40;;;;;;10455156;28;20605;-67
2021/09/05 01:25:24;;;;;;;7.67;4.73;;;18.60;72.00;;;;;;10455359;28;20542;-67
2021/09/05 01:30:47;;;;;;;6.90;4.97;;;18.60;71.50;;;;;;10453328;28;20228;-67
2021/09/05 01:36:09;;;;;;;5.53;4.90;;;18.60;71.50;;;;;;10454000;28;20212;-67
2021/09/05 01:41:31;;;;;;;7.33;4.73;;;18.60;71.60;;;;;;10453565;28;20213;-68
2021/09/05 01:46:55;;;;;;;5.67;4.60;;;18.60;71.60;;;;;;10454026;28;20197;-67
2021/09/05 01:52:17;;;;;;;6.53;5.30;;;18.60;71.60;;;;;;10452851;28;20244;-67
2021/09/05 01:57:39;;;;;;;8.40;5.07;;;18.60;71.60;;;;;;10452978;28;20213;-66
2021/09/05 02:03:03;;;;;;;7.47;5.27;;;18.60;71.60;;;;;;10453102;28;20220;-67
2021/09/05 02:08:25;;;;;;;5.87;5.27;;;18.60;71.60;;;;;;10453075;28;20200;-67
2021/09/05 02:13:47;;;;;;;6.10;5.47;;;18.60;71.60;;;;;;10500883;22;20715;-66
2021/09/05 02:19:10;;;;;;;7.13;5.33;;;18.60;71.70;;;;;;10461489;28;20189;-65
2021/09/05 02:24:33;;;;;;;9.43;5.83;;;18.60;71.80;;;;;;10452565;28;20558;-66
2021/09/05 02:29:55;;;;;;;9.87;6.50;;;18.60;71.80;;;;;;10479956;28;20196;-67
2021/09/05 02:35:18;;;;;;;8.43;6.10;;;18.60;72.00;;;;;;10493007;28;20227;-66
2021/09/05 02:40:42;;;;;;;8.90;6.60;;;18.60;72.00;;;;;;10492533;28;20196;-66
2021/09/05 02:46:04;;;;;;;8.90;5.90;;;18.60;72.10;;;;;;10492981;28;20661;-66
2021/09/05 02:51:29;;;;;;;7.13;6.13;;;18.60;72.10;;;;;;10492141;28;20220;-66
2021/09/05 02:56:51;;;;;;;8.00;5.73;;;18.60;72.20;;;;;;10493130;28;20227;-66
2021/09/05 03:02:13;;;;;;;7.90;6.47;;;18.50;72.20;;;;;;10492309;28;20233;-67
2021/09/05 03:07:36;;;;;;;7.73;5.77;;;18.60;72.20;;;;;;10495510;28;20205;-66
2021/09/05 03:12:58;;;;;;;7.67;6.43;;;18.60;72.30;;;;;;10485089;28;20700;-66
2021/09/05 03:18:20;;;;;;;8.83;6.40;;;18.60;72.30;;;;;;10492521;28;20212;-66
2021/09/05 03:23:44;;;;;;;8.67;6.03;;;18.50;72.30;;;;;;10492635;28;20217;-66
2021/09/05 03:29:06;;;;;;;6.10;5.30;;;18.50;72.40;;;;;;10497956;28;20196;-66
2021/09/05 03:34:28;;;;;;;10.50;6.03;;;18.50;72.40;;;;;;10499252;28;20231;-66
2021/09/05 03:39:52;;;;;;;7.80;6.07;;;18.50;72.30;;;;;;10496361;28;20193;-66
2021/09/05 03:45:14;;;;;;;6.90;6.00;;;18.50;72.40;;;;;;10499424;28;20212;-67
2021/09/05 03:50:36;;;;;;;9.30;6.00;;;18.50;72.40;;;;;;10498989;28;20203;-66
2021/09/05 03:55:59;;;;;;;7.37;5.77;;;18.60;72.50;;;;;;10499088;28;20208;-66
2021/09/05 04:01:21;;;;;;;7.50;5.50;;;18.50;72.40;;;;;;10457188;28;20223;-66
2021/09/05 04:06:49;;;;;;;7.47;6.27;;;18.50;72.30;;;;;;10479170;28;20192;-66
2021/09/05 04:12:13;;;;;;;7.17;5.67;;;18.50;72.30;;;;;;10498402;28;20223;-66
2021/09/05 04:17:35;;;;;;;9.60;6.23;;;18.50;72.30;;;;;;10498321;28;20216;-67
2021/09/05 04:22:57;;;;;;;7.70;5.50;;;18.50;72.30;;;;;;10497135;28;20212;-67
2021/09/05 04:28:20;;;;;;;6.67;5.20;;;18.50;72.30;;;;;;10497351;28;20573;-66
2021/09/05 04:33:42;;;;;;;6.67;5.70;;;18.50;72.30;;;;;;10497692;28;20208;-67
2021/09/05 04:39:05;;;;;;;12.03;5.83;;;18.50;72.40;;;;;;10496209;28;20223;-66
2021/09/05 04:44:28;;;;;;;6.87;5.17;;;18.50;72.30;;;;;;10497052;28;20239;-66
2021/09/05 04:49:50;;;;;;;8.40;4.83;;;18.50;72.30;;;;;;10496360;28;20197;-66
2021/09/05 04:55:12;;;;;;;6.37;5.00;;;18.50;72.40;;;;;;10496497;28;20692;-66
2021/09/05 05:00:36;;;;;;;7.80;5.60;;;18.50;72.30;;;;;;10496284;28;20701;-66
2021/09/05 05:05:58;;;;;;;7.20;5.23;;;18.50;72.30;;;;;;10495128;28;20661;-66
2021/09/05 05:11:20;;;;;;;5.60;5.00;;;18.50;72.30;;;;;;10454798;28;20720;-67
2021/09/05 05:16:43;;;;;;;6.17;5.00;;;18.50;72.30;;;;;;10454253;28;20593;-67
2021/09/05 05:22:06;;;;;;;5.53;4.77;;;18.50;72.40;;;;;;10462560;28;20212;-67
2021/09/05 05:27:28;;;;;;;5.30;4.63;;;18.50;72.40;;;;;;10491700;28;20185;-66
2021/09/05 05:32:52;;;;;;;5.73;4.67;;;18.50;72.30;;;;;;10495112;28;20227;-66
2021/09/05 05:38:14;;;;;;;7.33;4.93;;;18.50;72.30;;;;;;10494411;28;20216;-66
2021/09/05 05:43:36;;;;;;;6.47;4.90;;;18.50;72.30;;;;;;10490551;28;20688;-67
2021/09/05 05:49:00;;;;;;;8.03;4.83;;;18.50;72.40;;;;;;10493172;28;20185;-67
2021/09/05 05:54:22;;;;;;;7.23;5.30;;;18.50;72.50;;;;;;10491677;28;20208;-66
2021/09/05 05:59:44;;;;;;;6.23;4.77;;;18.50;72.60;;;;;;10490693;28;20888;-67
2021/09/05 06:05:09;;;;;;;6.73;5.17;;;18.50;72.50;;;;;;10491406;28;20216;-67
2021/09/05 06:10:32;;;;;;;5.80;4.90;;;18.50;73.10;;;;;;10491377;28;20197;-67
2021/09/05 06:15:54;;;;;;;6.27;4.67;;;18.50;72.30;;;;;;10492070;28;20204;-67
2021/09/05 06:21:17;;;;;;;6.73;4.47;;;18.50;72.40;;;;;;10491530;28;20223;-67
2021/09/05 06:26:40;;;;;;;5.93;4.83;;;18.50;72.40;;;;;;10492184;28;20192;-67
2021/09/05 06:32:02;;;;;;;5.30;4.10;;;18.40;72.30;;;;;;10492867;28;20246;-67
2021/09/05 06:37:25;;;;;;;7.53;4.83;;;18.40;72.10;;;;;;10493759;28;20212;-66
2021/09/05 06:42:47;;;;;;;4.90;4.40;;;18.40;72.10;;;;;;10492787;28;20219;-66
2021/09/05 06:48:09;;;;;;;5.13;4.37;;;18.40;72.00;;;;;;10492829;28;20199;-67
2021/09/05 06:53:33;;;;;;;4.20;3.73;;;18.40;72.00;;;;;;10492330;28;20724;-66
2021/09/05 06:58:55;;;;;;;5.13;4.27;;;18.40;72.10;;;;;;10492264;28;20220;-66
2021/09/05 07:04:17;;;;;;;4.47;3.67;;;18.40;72.10;;;;;;10500408;28;20707;-67
2021/09/05 07:09:41;;;;;;;4.13;3.60;;;18.40;72.10;;;;;;10500523;28;20691;-66
2021/09/05 07:15:03;;;;;;;4.80;3.77;;;18.40;72.10;;;;;;10500070;28;20231;-67
2021/09/05 07:20:25;;;;;;;5.40;4.00;;;18.50;72.00;;;;;;10498920;28;20211;-66
2021/09/05 07:25:49;;;;;;;5.53;3.97;;;18.50;72.00;;;;;;10497713;28;20771;-66
2021/09/05 07:31:11;;;;;;;5.20;3.87;;;18.50;71.90;;;;;;10500554;28;20224;-68
2021/09/05 07:36:34;;;;;;;4.10;3.70;;;18.40;71.80;;;;;;10463572;28;20217;-66
2021/09/05 07:41:57;;;;;;;4.70;3.90;;;18.50;71.80;;;;;;10458870;28;20294;-68
2021/09/05 07:47:19;;;;;;;5.37;3.57;;;18.40;72.00;;;;;;10460367;28;20190;-67
2021/09/05 07:52:41;;;;;;;3.83;3.43;;;18.40;71.90;;;;;;10487748;28;20220;-66
2021/09/05 07:58:05;;;;;;;4.30;3.70;;;18.40;71.70;;;;;;10475657;28;20216;-66
2021/09/05 08:03:27;;;;;;;4.40;3.33;;;18.40;71.60;;;;;;10498939;28;20227;-66
2021/09/05 08:08:49;;;;;;;4.90;3.20;;;18.40;71.60;;;;;;10497664;28;20661;-66
2021/09/05 08:14:13;;;;;;;4.20;3.60;;;18.40;71.80;;;;;;10496438;22;20229;-64
2021/09/05 08:19:35;;;;;;;4.07;3.67;;;18.40;71.80;;;;;;10481072;28;20224;-65
2021/09/05 08:24:57;;;;;;;3.43;3.10;;;18.40;71.80;;;;;;10486884;28;20223;-64
2021/09/05 08:30:20;;;;;;;3.23;2.83;;;18.40;71.80;;;;;;10492550;28;20220;-63
2021/09/05 08:35:43;;;;;;;3.53;3.17;;;18.40;72.20;;;;;;10496160;28;20200;-63
2021/09/05 08:41:05;;;;;;;4.07;3.57;;;18.40;72.20;;;;;;10493817;28;20223;-66
2021/09/05 08:46:29;;;;;;;3.87;3.23;;;18.40;72.40;;;;;;10494828;28;20188;-64
2021/09/05 08:51:51;;;;;;;3.57;3.17;;;18.40;72.50;;;;;;10492769;28;20710;-65
2021/09/05 08:57:13;;;;;;;4.23;3.47;;;18.40;72.50;;;;;;10493744;28;20211;-68
2021/09/05 09:02:47;;;;;;;4.20;3.80;;;18.40;72.70;;;;;;10493011;28;20216;-64
2021/09/05 09:08:11;;;;;;;4.43;3.47;;;18.40;72.90;;;;;;10494661;28;20199;-64
2021/09/05 09:13:35;;;;;;;4.37;3.47;;;18.40;73.10;;;;;;10494233;28;20200;-64
2021/09/05 09:18:58;;;;;;;4.17;3.40;;;18.40;73.20;;;;;;10492502;28;20224;-65
2021/09/05 09:24:22;;;;;;;4.73;3.70;;;18.50;73.30;;;;;;10493908;28;20886;-64
2021/09/05 09:29:44;;;;;;;4.43;3.33;;;18.40;73.30;;;;;;10467883;28;20212;-65
2021/09/05 09:35:09;;;;;;;3.97;3.27;;;18.40;73.30;;;;;;10478696;28;20211;-66
2021/09/05 09:40:31;;;;;;;5.60;3.60;;;18.40;73.40;;;;;;10491397;28;20243;-64
2021/09/05 09:45:53;;;;;;;4.60;3.20;;;18.40;73.40;;;;;;10493442;28;20216;-64
2021/09/05 09:51:18;;;;;;;5.73;3.53;;;18.50;73.40;;;;;;10493033;28;20212;-64
2021/09/05 09:56:41;;;;;;;3.40;3.10;;;18.40;73.30;;;;;;10490446;28;20212;-64
2021/09/05 10:02:06;;;;;;;4.63;3.10;;;18.40;73.30;;;;;;10492872;28;20211;-64
2021/09/05 10:07:30;;;;;;;4.03;3.23;;;18.50;73.40;;;;;;10492899;28;20559;-66
2021/09/05 10:12:55;;;;;;;3.90;3.10;;;18.50;73.40;;;;;;10492164;28;20227;-64
2021/09/05 10:18:17;;;;;;;3.47;2.93;;;18.50;73.40;;;;;;10491267;28;20709;-65
2021/09/05 10:23:47;;;;;;;3.57;3.10;;;18.50;73.30;;;;;;10492736;28;20192;-66
2021/09/05 10:29:14;;;;;;;4.00;3.00;;;18.50;73.30;;;;;;10490917;28;20212;-64
2021/09/05 10:34:38;;;;;;;3.20;2.90;;;18.50;73.30;;;;;;10490370;28;20189;-64
2021/09/05 10:40:12;;;;;;;3.57;3.10;;;18.50;73.30;;;;;;10491287;28;20702;-65
2021/09/05 10:45:35;;;;;;;3.53;2.70;;;18.50;73.30;;;;;;10491760;28;20207;-64
2021/09/05 10:51:05;;;;;;;3.80;2.90;;;18.50;73.30;;;;;;10489432;28;20208;-64
2021/09/05 10:56:30;;;;;;;4.30;3.17;;;18.50;73.50;;;;;;10488297;28;20675;-64
2021/09/05 11:02:01;;;;;;;3.50;3.00;;;18.50;73.50;;;;;;10450128;28;20232;-65
2021/09/05 11:07:34;;;;;;;4.07;3.33;;;18.50;73.50;;;;;;10475967;28;20337;-64
2021/09/05 11:12:57;;;;;;;4.57;3.10;;;18.50;73.40;;;;;;10489253;28;20227;-68
2021/09/05 11:18:19;;;;;;;4.43;3.10;;;18.50;73.50;;;;;;10490499;28;20208;-64
2021/09/05 11:23:42;;;;;;;3.57;3.17;;;18.50;73.40;;;;;;10491152;28;20583;-64
2021/09/05 11:29:27;;;;;;;3.53;3.10;;;18.50;73.30;;;;;;10468857;28;20214;-64
2021/09/05 11:34:54;;;;;;;3.60;3.00;;;18.60;73.20;;;;;;10449974;28;20197;-64
2021/09/05 11:40:17;;;;;;;4.00;3.50;;;18.50;73.30;;;;;;10449113;28;20716;-64
2021/09/05 11:45:42;;;;;;;3.00;2.67;;;18.50;73.20;;;;;;10487488;28;20587;-64
2021/09/05 11:51:05;;;;;;;4.13;3.37;;;18.50;73.20;;;;;;10456863;28;20219;-64
2021/09/05 11:56:29;;;;;;;3.13;2.83;;;18.50;73.20;;;;;;10459388;28;20220;-64
2021/09/05 12:01:53;;;;;;;5.57;3.43;;;18.50;73.20;;;;;;10496850;28;20216;-67
2021/09/05 12:07:16;;;;;;;4.13;3.00;;;18.50;73.00;;;;;;10496575;28;20224;-62
2021/09/05 12:12:39;;;;;;;4.43;3.03;;;18.50;72.90;;;;;;10496278;28;20224;-62
2021/09/05 12:18:03;;;;;;;4.53;3.33;;;18.50;72.90;;;;;;10456782;28;20213;-64
2021/09/05 12:23:27;;;;;;;3.87;2.70;;;18.50;72.90;;;;;;10453118;28;20221;-66
2021/09/05 12:28:58;;;;;;;3.80;3.30;;;18.50;73.20;;;;;;10454098;28;20715;-64
2021/09/05 12:34:41;;;;;;;4.63;3.30;;;18.60;72.60;;;;;;10488457;28;20207;-63
2021/09/05 12:40:16;;;;;;;4.67;3.73;;;18.60;72.60;;;;;;10494201;28;20224;-65
2021/09/05 12:45:50;;;;;;;4.03;3.50;;;18.60;72.80;;;;;;10493126;28;20196;-65
2021/09/05 12:51:17;;;;;;;5.10;3.53;;;18.60;72.90;;;;;;10494540;28;20215;-66
2021/09/05 12:56:40;;;;;;;5.27;3.43;;;18.60;73.00;;;;;;10493777;28;20679;-64
2021/09/05 13:02:02;;;;;;;5.43;3.83;;;18.60;73.00;;;;;;10487880;28;20213;-64
2021/09/05 13:07:26;;;;;;;4.73;3.33;;;18.60;72.90;;;;;;10491303;28;20195;-64
2021/09/05 13:12:48;;;;;;;4.10;3.50;;;18.60;72.90;;;;;;10493230;28;20224;-64
2021/09/05 13:18:10;;;;;;;4.23;3.40;;;18.60;72.90;;;;;;10492822;28;20219;-64
2021/09/05 13:23:34;;;;;;;4.67;3.43;;;18.60;72.90;;;;;;10492183;28;20192;-65
2021/09/05 13:28:57;;;;;;;5.43;3.73;;;18.60;72.80;;;;;;10474827;28;20209;-64
2021/09/05 13:34:19;;;;;;;3.33;3.03;;;18.60;73.00;;;;;;10461939;28;20195;-65
2021/09/05 13:39:43;;;;;;;4.60;3.80;;;18.60;72.90;;;;;;10477387;28;20224;-65
2021/09/05 13:45:06;;;;;;;4.83;3.40;;;18.60;73.20;;;;;;10493484;28;20208;-65
2021/09/05 13:50:29;;;;;;;4.20;3.40;;;18.60;72.60;;;;;;10490535;28;20235;-65
2021/09/05 13:55:52;;;;;;;4.07;3.20;;;18.60;72.90;;;;;;10492163;28;20208;-65
2021/09/05 14:01:14;;;;;;;3.57;2.80;;;18.60;72.50;;;;;;10491765;28;20220;-65
2021/09/05 14:06:37;;;;;;;3.37;3.07;;;18.60;72.10;;;;;;10492208;28;20200;-64
2021/09/05 14:12:00;;;;;;;4.67;2.87;;;18.60;72.00;;;;;;10509792;22;20227;-63
2021/09/05 14:17:22;;;;;;;2.63;2.40;;;18.60;71.70;;;;;;10534503;28;20227;-60
2021/09/05 14:22:44;;;;;;;3.27;2.97;;;18.60;71.10;;;;;;10511167;28;20539;-60
2021/09/05 14:28:10;;;;;;;5.30;2.90;;;18.50;70.70;;;;;;10503947;28;20195;-61
2021/09/05 14:33:51;;;;;;;4.03;2.93;;;18.60;70.10;;;;;;10532312;28;20187;-59
2021/09/05 14:50:58;;;;;;;3.13;2.53;;;18.60;68.70;;;;;;10538826;28;20227;-62
2021/09/05 14:56:21;;;;;;;2.97;2.57;;;18.50;68.70;;;;;;10533540;28;20191;-59
2021/09/05 15:01:48;;;;;;;3.23;2.73;;;18.60;69.00;;;;;;10532114;28;20212;-61
2021/09/05 15:12:50;;;;;;;3.73;2.90;;;18.60;68.80;;;;;;10527350;28;20242;-58
2021/09/05 15:18:13;;;;;;;4.10;3.60;;;18.60;69.00;;;;;;10524735;28;20234;-61
2021/09/05 15:23:41;;;;;;;3.77;3.10;;;18.60;68.90;;;;;;10534799;28;20195;-63
2021/09/05 15:29:15;;;;;;;3.23;2.83;;;18.60;69.00;;;;;;10540101;28;20911;-61
2021/09/05 15:35:08;;;;;;;5.20;3.23;;;18.60;68.90;;;;;;10526125;28;20193;-62
2021/09/05 15:51:55;;;;;;;5.83;4.30;;;18.60;71.60;;;;;;10538777;28;20261;-62
2021/09/05 15:57:17;;;;;;;6.03;4.93;;;18.60;72.00;;;;;;10538863;28;20212;-62
2021/09/05 16:02:43;;;;;;;7.03;5.00;;;18.60;72.00;;;;;;10538899;28;20218;-63
2021/09/05 16:19:26;;;;;;;6.43;5.53;;;18.60;72.90;;;;;;10537592;28;20226;-61
2021/09/05 16:24:49;;;;;;;7.43;5.80;;;18.60;72.80;;;;;;10537198;28;20198;-63
2021/09/05 16:30:16;;;;;;;9.70;6.47;;;18.60;72.90;;;;;;10536071;28;20218;-63
2021/09/05 16:35:51;;;;;;;10.10;7.70;;;18.60;72.90;;;;;;10535764;28;20192;-59
2021/09/05 16:41:14;;;;;;;10.30;8.17;;;18.60;73.10;;;;;;10536402;28;20598;-60
2021/09/05 16:46:36;;;;;;;9.67;7.67;;;18.60;72.90;;;;;;10535660;28;20200;-63
2021/09/05 16:51:59;;;;;;;8.07;7.07;;;18.60;72.80;;;;;;10535842;28;20591;-60
2021/09/05 16:57:22;;;;;;;8.67;6.83;;;18.60;72.80;;;;;;10536022;28;20212;-61
2021/09/05 17:02:44;;;;;;;9.40;7.73;;;18.60;72.90;;;;;;10532750;28;20582;-61
2021/09/05 17:08:07;;;;;;;9.13;7.63;;;18.60;72.90;;;;;;10536133;28;20187;-62
2021/09/05 17:13:30;;;;;;;9.67;7.63;;;18.60;72.80;;;;;;10506007;28;20229;-61
2021/09/05 17:18:52;;;;;;;9.83;7.77;;;18.60;72.60;;;;;;10494751;28;20225;-59
2021/09/05 17:24:14;;;;;;;10.03;8.30;;;18.60;72.50;;;;;;10492975;28;20199;-61
2021/09/05 17:29:38;;;;;;;10.80;8.47;;;18.50;72.40;;;;;;10522614;28;20212;-63
2021/09/05 17:35:00;;;;;;;10.60;8.73;;;18.60;72.40;;;;;;10534669;28;20199;-64
2021/09/05 17:40:22;;;;;;;9.60;7.43;;;18.60;72.70;;;;;;10534227;28;20441;-63
2021/09/05 17:45:46;;;;;;;9.27;7.37;;;18.60;72.70;;;;;;10533086;28;20200;-62
2021/09/05 17:51:09;;;;;;;11.93;8.13;;;18.60;72.80;;;;;;10534143;28;20211;-63
2021/09/05 17:56:31;;;;;;;10.50;8.50;;;18.60;72.90;;;;;;10492315;28;20287;-62
2021/09/05 18:01:54;;;;;;;11.40;7.90;;;18.60;72.90;;;;;;10492434;28;20622;-63
2021/09/05 18:07:16;;;;;;;12.80;7.87;;;18.60;72.90;;;;;;10492363;28;20201;-62
2021/09/05 18:12:39;;;;;;;10.83;8.07;;;18.60;72.80;;;;;;10513444;28;20231;-61
2021/09/05 18:18:03;;;;;;;11.37;8.17;;;18.60;72.90;;;;;;10532326;28;20234;-62
2021/09/05 18:23:27;;;;;;;8.87;6.83;;;18.60;72.90;;;;;;10531997;28;20220;-64
2021/09/05 18:28:49;;;;;;;8.10;7.23;;;18.60;73.00;;;;;;10531727;28;20195;-62
2021/09/05 18:34:12;;;;;;;10.40;8.23;;;18.70;73.10;;;;;;10531163;28;20267;-60
2021/09/05 18:39:34;;;;;;;9.73;7.47;;;18.70;73.10;;;;;;10530392;28;20594;-62
2021/09/05 18:44:56;;;;;;;10.03;7.93;;;18.70;73.10;;;;;;10534200;28;20188;-62
2021/09/05 18:50:20;;;;;;;9.50;7.43;;;18.70;73.10;;;;;;10530605;28;21477;-61
2021/09/05 18:55:42;;;;;;;9.37;7.80;;;18.60;73.00;;;;;;10529767;28;20203;-59
2021/09/05 19:01:06;;;;;;;9.60;7.60;;;18.60;73.00;;;;;;10537675;28;20219;-60
2021/09/05 19:06:31;;;;;;;9.20;8.03;;;18.60;73.00;;;;;;10540781;28;20686;-62
2021/09/05 19:11:53;;;;;;;8.83;7.43;;;18.70;73.10;;;;;;10539950;28;20224;-62
2021/09/05 19:17:15;;;;;;;7.80;7.00;;;18.70;73.10;;;;;;10540933;28;20196;-62
2021/09/05 19:22:39;;;;;;;8.93;7.33;;;18.60;73.00;;;;;;10540241;28;20212;-63
2021/09/05 19:28:01;;;;;;;8.33;7.37;;;18.60;73.00;;;;;;10540614;28;20188;-63
2021/09/05 19:33:23;;;;;;;8.03;6.87;;;18.60;73.00;;;;;;10532190;28;20226;-64
2021/09/05 19:38:47;;;;;;;8.73;6.27;;;18.70;73.10;;;;;;10536570;28;20204;-61
2021/09/05 19:44:09;;;;;;;10.60;7.53;;;18.60;73.10;;;;;;10537868;28;20659;-62
2021/09/05 19:49:31;;;;;;;8.43;6.97;;;18.70;73.10;;;;;;10537761;28;20208;-63
2021/09/05 19:54:55;;;;;;;8.20;7.13;;;18.70;73.10;;;;;;10538310;28;20196;-63
2021/09/05 20:00:18;;;;;;;8.60;7.07;;;18.70;73.20;;;;;;10537901;28;20223;-63
2021/09/05 20:05:40;;;;;;;8.27;7.00;;;18.70;73.20;;;;;;10535675;28;20207;-62
2021/09/05 20:11:04;;;;;;;7.53;6.73;;;18.70;73.20;;;;;;10533995;28;20212;-63
2021/09/05 20:16:27;;;;;;;7.90;6.57;;;18.70;73.20;;;;;;10511342;22;20227;-64
2021/09/05 20:21:49;;;;;;;8.07;7.00;;;18.70;73.30;;;;;;10492808;28;20220;-64
2021/09/05 20:27:12;;;;;;;8.53;7.23;;;18.70;73.20;;;;;;10491549;28;20679;-61
2021/09/05 20:32:35;;;;;;;7.57;6.77;;;18.70;73.30;;;;;;10476751;28;20217;-62
2021/09/05 20:37:57;;;;;;;8.10;6.93;;;18.60;73.20;;;;;;10455707;28;20220;-63
2021/09/05 20:43:20;;;;;;;7.70;6.87;;;18.70;73.20;;;;;;10478926;28;20209;-63
2021/09/05 20:48:43;;;;;;;7.73;6.53;;;18.60;73.20;;;;;;10488282;28;20198;-64
2021/09/05 20:54:06;;;;;;;8.83;7.00;;;18.70;73.20;;;;;;10490996;28;20585;-64
2021/09/05 20:59:30;;;;;;;7.63;6.43;;;18.70;73.20;;;;;;10495632;28;20212;-65
2021/09/05 21:04:52;;;;;;;8.50;6.80;;;18.70;73.20;;;;;;10494840;28;20687;-64
2021/09/05 21:10:15;;;;;;;7.23;6.40;;;18.60;73.20;;;;;;10454181;28;20216;-64
2021/09/05 21:15:39;;;;;;;8.77;7.23;;;18.70;73.20;;;;;;10485889;28;20223;-64
2021/09/05 21:21:02;;;;;;;8.17;6.83;;;18.70;73.20;;;;;;10492542;28;20220;-64
2021/09/05 21:26:24;;;;;;;8.57;6.80;;;18.70;73.10;;;;;;10492656;28;20698;-63
2021/09/05 21:31:47;;;;;;;8.87;7.20;;;18.60;73.10;;;;;;10491604;28;20219;-63
2021/09/05 21:37:09;;;;;;;8.30;6.93;;;18.60;73.10;;;;;;10493544;28;20188;-63
2021/09/05 21:42:31;;;;;;;7.83;6.60;;;18.60;73.00;;;;;;10491899;28;20225;-63
2021/09/05 21:47:55;;;;;;;7.50;6.30;;;18.60;73.00;;;;;;10493674;28;20200;-63
2021/09/05 21:53:17;;;;;;;8.53;6.60;;;18.70;73.10;;;;;;10492504;28;20219;-63
2021/09/05 21:58:39;;;;;;;7.70;6.70;;;18.60;73.00;;;;;;10453714;28;20216;-64
2021/09/05 22:04:03;;;;;;;7.13;6.30;;;18.60;72.90;;;;;;10492454;28;20196;-64
2021/09/05 22:09:25;;;;;;;7.90;6.63;;;18.60;72.90;;;;;;10491491;28;20219;-62
2021/09/05 22:14:47;;;;;;;8.13;6.57;;;18.70;72.90;;;;;;10492555;28;20196;-64
2021/09/05 22:20:12;;;;;;;7.33;6.47;;;18.60;72.90;;;;;;10491516;28;20235;-64
2021/09/05 22:25:34;;;;;;;6.93;6.23;;;18.70;72.90;;;;;;10492524;28;20204;-65
2021/09/05 22:30:56;;;;;;;6.87;6.17;;;18.60;72.80;;;;;;10491190;28;20200;-64
2021/09/05 22:36:19;;;;;;;6.60;5.90;;;18.70;72.80;;;;;;10491736;28;20196;-62
2021/09/05 22:41:42;;;;;;;6.97;5.80;;;18.70;72.80;;;;;;10491084;28;20596;-64
2021/09/05 22:47:04;;;;;;;6.37;5.73;;;18.70;72.80;;;;;;10491596;28;20544;-64
2021/09/05 22:52:28;;;;;;;6.50;5.80;;;18.70;72.80;;;;;;10489290;28;20208;-64
2021/09/05 22:57:50;;;;;;;6.70;5.97;;;18.70;72.70;;;;;;10491685;28;20196;-64
2021/09/05 23:03:12;;;;;;;8.47;6.47;;;18.70;72.70;;;;;;10490529;28;20231;-64
2021/09/05 23:08:35;;;;;;;7.47;6.10;;;18.70;72.70;;;;;;10490706;28;20377;-63
2021/09/05 23:13:58;;;;;;;7.13;6.03;;;18.70;72.70;;;;;;10489945;28;20204;-64
2021/09/05 23:19:20;;;;;;;7.93;6.03;;;18.70;72.60;;;;;;10490158;28;20722;-65
2021/09/05 23:24:43;;;;;;;7.73;6.03;;;18.60;73.10;;;;;;10459260;28;20587;-64
2021/09/05 23:30:06;;;;;;;6.77;6.07;;;18.70;72.60;;;;;;10484296;28;20224;-63
2021/09/05 23:35:28;;;;;;;6.50;5.77;;;18.70;72.60;;;;;;10489805;28;20571;-64
2021/09/05 23:40:52;;;;;;;6.97;6.23;;;18.70;72.60;;;;;;10451791;28;20228;-64
2021/09/05 23:46:14;;;;;;;6.27;5.67;;;18.70;72.60;;;;;;10498708;28;20683;-65
2021/09/05 23:51:36;;;;;;;6.83;6.07;;;18.60;72.70;;;;;;10494828;28;20220;-64
2021/09/05 23:57:00;;;;;;;7.10;6.40;;;18.60;72.70;;;;;;10497217;28;20204;-64
